sensor_id;sensor_type;location;lat;lon;timestamp;P1;durP1;ratioP1;P2;durP2;ratioP2
34876;SDS011;21086;44.780;17.194;2023-05-19T00:00:57;10.02;;;6.70;;
34876;SDS011;21086;44.780;17.194;2023-05-19T00:03:25;7.95;;;6.90;;
34876;SDS011;21086;44.780;17.194;2023-05-19T00:05:53;7.18;;;6.22;;
34876;SDS011;21086;44.780;17.194;2023-05-19T00:08:21;7.50;;;6.32;;
34876;SDS011;21086;44.780;17.194;2023-05-19T00:10:49;8.55;;;6.35;;
34876;SDS011;21086;44.780;17.194;2023-05-19T00:13:17;9.70;;;7.57;;
34876;SDS011;21086;44.780;17.194;2023-05-19T00:15:44;10.13;;;7.05;;
34876;SDS011;21086;44.780;17.194;2023-05-19T00:18:11;8.45;;;7.63;;
34876;SDS011;21086;44.780;17.194;2023-05-19T00:20:39;7.40;;;6.63;;
34876;SDS011;21086;44.780;17.194;2023-05-19T00:23:06;8.75;;;7.43;;
34876;SDS011;21086;44.780;17.194;2023-05-19T00:25:34;8.07;;;7.28;;
34876;SDS011;21086;44.780;17.194;2023-05-19T00:28:01;7.97;;;7.13;;
34876;SDS011;21086;44.780;17.194;2023-05-19T00:30:28;9.02;;;7.78;;
34876;SDS011;21086;44.780;17.194;2023-05-19T00:32:56;8.60;;;7.70;;
34876;SDS011;21086;44.780;17.194;2023-05-19T00:35:23;9.32;;;7.95;;
34876;SDS011;21086;44.780;17.194;2023-05-19T00:37:50;10.32;;;8.48;;
34876;SDS011;21086;44.780;17.194;2023-05-19T00:40:17;9.10;;;8.05;;
34876;SDS011;21086;44.780;17.194;2023-05-19T00:42:44;8.75;;;7.85;;
34876;SDS011;21086;44.780;17.194;2023-05-19T00:45:11;9.63;;;8.18;;
34876;SDS011;21086;44.780;17.194;2023-05-19T00:47:38;8.93;;;8.02;;
34876;SDS011;21086;44.780;17.194;2023-05-19T00:50:05;9.85;;;8.52;;
34876;SDS011;21086;44.780;17.194;2023-05-19T00:52:32;8.30;;;7.38;;
34876;SDS011;21086;44.780;17.194;2023-05-19T00:54:59;8.25;;;7.30;;
34876;SDS011;21086;44.780;17.194;2023-05-19T00:57:26;8.40;;;7.50;;
34876;SDS011;21086;44.780;17.194;2023-05-19T00:59:54;8.70;;;7.07;;
34876;SDS011;21086;44.780;17.194;2023-05-19T01:02:21;9.43;;;7.88;;
34876;SDS011;21086;44.780;17.194;2023-05-19T01:04:49;8.20;;;7.40;;
34876;SDS011;21086;44.780;17.194;2023-05-19T01:07:17;8.23;;;7.25;;
34876;SDS011;21086;44.780;17.194;2023-05-19T01:09:45;8.35;;;7.45;;
34876;SDS011;21086;44.780;17.194;2023-05-19T01:12:12;8.30;;;6.53;;
34876;SDS011;21086;44.780;17.194;2023-05-19T01:14:40;11.20;;;6.55;;
34876;SDS011;21086;44.780;17.194;2023-05-19T01:31:31;8.63;;;6.82;;
34876;SDS011;21086;44.780;17.194;2023-05-19T01:33:59;10.13;;;7.60;;
34876;SDS011;21086;44.780;17.194;2023-05-19T01:36:29;6.32;;;5.65;;
34876;SDS011;21086;44.780;17.194;2023-05-19T01:38:59;8.63;;;6.53;;
34876;SDS011;21086;44.780;17.194;2023-05-19T01:41:27;7.50;;;6.70;;
34876;SDS011;21086;44.780;17.194;2023-05-19T01:43:56;8.30;;;7.00;;
34876;SDS011;21086;44.780;17.194;2023-05-19T01:46:23;7.13;;;6.35;;
34876;SDS011;21086;44.780;17.194;2023-05-19T01:48:51;8.80;;;6.82;;
34876;SDS011;21086;44.780;17.194;2023-05-19T01:51:19;7.45;;;6.55;;
34876;SDS011;21086;44.780;17.194;2023-05-19T01:53:46;7.22;;;6.43;;
34876;SDS011;21086;44.780;17.194;2023-05-19T01:56:13;7.65;;;6.47;;
34876;SDS011;21086;44.780;17.194;2023-05-19T01:58:47;8.93;;;6.80;;
34876;SDS011;21086;44.780;17.194;2023-05-19T02:07:12;9.27;;;7.05;;
34876;SDS011;21086;44.780;17.194;2023-05-19T02:12:27;7.57;;;6.57;;
34876;SDS011;21086;44.780;17.194;2023-05-19T02:15:10;7.85;;;6.22;;
34876;SDS011;21086;44.780;17.194;2023-05-19T02:17:49;7.47;;;6.22;;
34876;SDS011;21086;44.780;17.194;2023-05-19T02:20:20;7.07;;;6.38;;
34876;SDS011;21086;44.780;17.194;2023-05-19T02:22:50;7.97;;;7.03;;
34876;SDS011;21086;44.780;17.194;2023-05-19T02:25:17;7.55;;;6.75;;
34876;SDS011;21086;44.780;17.194;2023-05-19T02:27:45;8.00;;;6.65;;
34876;SDS011;21086;44.780;17.194;2023-05-19T02:30:14;6.53;;;5.85;;
34876;SDS011;21086;44.780;17.194;2023-05-19T02:32:41;6.88;;;5.78;;
34876;SDS011;21086;44.780;17.194;2023-05-19T02:35:12;7.20;;;5.97;;
34876;SDS011;21086;44.780;17.194;2023-05-19T02:37:39;7.57;;;6.40;;
34876;SDS011;21086;44.780;17.194;2023-05-19T02:40:06;7.05;;;5.57;;
34876;SDS011;21086;44.780;17.194;2023-05-19T02:42:34;6.60;;;5.70;;
34876;SDS011;21086;44.780;17.194;2023-05-19T02:45:01;9.13;;;6.15;;
34876;SDS011;21086;44.780;17.194;2023-05-19T02:47:28;7.47;;;6.22;;
34876;SDS011;21086;44.780;17.194;2023-05-19T02:49:55;9.07;;;6.95;;
34876;SDS011;21086;44.780;17.194;2023-05-19T02:52:22;10.60;;;6.75;;
34876;SDS011;21086;44.780;17.194;2023-05-19T02:54:50;11.25;;;7.07;;
34876;SDS011;21086;44.780;17.194;2023-05-19T02:57:17;7.80;;;6.53;;
34876;SDS011;21086;44.780;17.194;2023-05-19T02:59:44;7.47;;;6.20;;
34876;SDS011;21086;44.780;17.194;2023-05-19T03:02:11;7.45;;;6.38;;
34876;SDS011;21086;44.780;17.194;2023-05-19T03:04:39;7.35;;;6.22;;
34876;SDS011;21086;44.780;17.194;2023-05-19T03:07:08;7.20;;;6.03;;
34876;SDS011;21086;44.780;17.194;2023-05-19T03:09:36;6.72;;;6.03;;
34876;SDS011;21086;44.780;17.194;2023-05-19T03:12:03;8.55;;;6.15;;
34876;SDS011;21086;44.780;17.194;2023-05-19T03:14:33;7.60;;;6.80;;
34876;SDS011;21086;44.780;17.194;2023-05-19T03:17:00;6.47;;;5.78;;
34876;SDS011;21086;44.780;17.194;2023-05-19T03:19:27;7.97;;;6.43;;
34876;SDS011;21086;44.780;17.194;2023-05-19T03:21:54;7.70;;;6.15;;
34876;SDS011;21086;44.780;17.194;2023-05-19T03:24:22;7.78;;;6.25;;
34876;SDS011;21086;44.780;17.194;2023-05-19T03:26:49;8.70;;;6.47;;
34876;SDS011;21086;44.780;17.194;2023-05-19T03:29:16;6.38;;;5.72;;
34876;SDS011;21086;44.780;17.194;2023-05-19T03:31:44;7.22;;;6.43;;
34876;SDS011;21086;44.780;17.194;2023-05-19T03:34:11;7.63;;;6.10;;
34876;SDS011;21086;44.780;17.194;2023-05-19T03:36:38;7.10;;;5.82;;
34876;SDS011;21086;44.780;17.194;2023-05-19T03:39:05;7.15;;;6.10;;
34876;SDS011;21086;44.780;17.194;2023-05-19T03:41:33;11.35;;;5.75;;
34876;SDS011;21086;44.780;17.194;2023-05-19T03:44:00;8.90;;;6.95;;
34876;SDS011;21086;44.780;17.194;2023-05-19T03:46:27;7.30;;;6.07;;
34876;SDS011;21086;44.780;17.194;2023-05-19T03:48:54;8.05;;;6.75;;
34876;SDS011;21086;44.780;17.194;2023-05-19T03:51:21;10.07;;;7.28;;
34876;SDS011;21086;44.780;17.194;2023-05-19T03:53:48;16.88;;;6.68;;
34876;SDS011;21086;44.780;17.194;2023-05-19T03:56:15;10.35;;;6.53;;
34876;SDS011;21086;44.780;17.194;2023-05-19T03:58:43;9.93;;;6.55;;
34876;SDS011;21086;44.780;17.194;2023-05-19T04:01:12;10.20;;;6.07;;
34876;SDS011;21086;44.780;17.194;2023-05-19T04:03:39;8.32;;;5.97;;
34876;SDS011;21086;44.780;17.194;2023-05-19T04:06:06;8.57;;;6.10;;
34876;SDS011;21086;44.780;17.194;2023-05-19T04:08:34;6.15;;;5.18;;
34876;SDS011;21086;44.780;17.194;2023-05-19T04:11:01;9.60;;;5.80;;
34876;SDS011;21086;44.780;17.194;2023-05-19T04:13:28;9.27;;;6.03;;
34876;SDS011;21086;44.780;17.194;2023-05-19T04:15:56;8.07;;;5.57;;
34876;SDS011;21086;44.780;17.194;2023-05-19T04:18:23;9.45;;;6.25;;
34876;SDS011;21086;44.780;17.194;2023-05-19T04:20:53;6.80;;;5.80;;
34876;SDS011;21086;44.780;17.194;2023-05-19T04:23:20;6.68;;;5.68;;
34876;SDS011;21086;44.780;17.194;2023-05-19T04:25:47;6.95;;;6.15;;
34876;SDS011;21086;44.780;17.194;2023-05-19T04:28:15;6.53;;;5.82;;
34876;SDS011;21086;44.780;17.194;2023-05-19T04:30:43;7.47;;;6.60;;
34876;SDS011;21086;44.780;17.194;2023-05-19T04:33:12;7.30;;;6.10;;
34876;SDS011;21086;44.780;17.194;2023-05-19T04:35:39;11.40;;;7.80;;
34876;SDS011;21086;44.780;17.194;2023-05-19T04:38:06;8.93;;;6.93;;
34876;SDS011;21086;44.780;17.194;2023-05-19T04:40:33;10.32;;;7.45;;
34876;SDS011;21086;44.780;17.194;2023-05-19T04:43:00;8.75;;;5.85;;
34876;SDS011;21086;44.780;17.194;2023-05-19T04:45:27;7.68;;;6.30;;
34876;SDS011;21086;44.780;17.194;2023-05-19T04:47:55;9.57;;;6.55;;
34876;SDS011;21086;44.780;17.194;2023-05-19T04:50:23;11.07;;;7.75;;
34876;SDS011;21086;44.780;17.194;2023-05-19T04:52:50;9.35;;;6.40;;
34876;SDS011;21086;44.780;17.194;2023-05-19T04:55:17;7.70;;;6.35;;
34876;SDS011;21086;44.780;17.194;2023-05-19T04:57:45;6.00;;;5.25;;
34876;SDS011;21086;44.780;17.194;2023-05-19T05:00:12;8.10;;;6.68;;
34876;SDS011;21086;44.780;17.194;2023-05-19T05:02:40;7.43;;;6.53;;
34876;SDS011;21086;44.780;17.194;2023-05-19T05:05:08;7.38;;;6.60;;
34876;SDS011;21086;44.780;17.194;2023-05-19T05:07:35;10.65;;;8.07;;
34876;SDS011;21086;44.780;17.194;2023-05-19T05:10:02;7.65;;;6.63;;
34876;SDS011;21086;44.780;17.194;2023-05-19T05:12:30;7.40;;;6.57;;
34876;SDS011;21086;44.780;17.194;2023-05-19T05:14:58;7.43;;;6.50;;
34876;SDS011;21086;44.780;17.194;2023-05-19T05:17:25;11.15;;;7.50;;
34876;SDS011;21086;44.780;17.194;2023-05-19T05:19:54;11.00;;;7.93;;
34876;SDS011;21086;44.780;17.194;2023-05-19T05:22:21;8.07;;;7.10;;
34876;SDS011;21086;44.780;17.194;2023-05-19T05:24:48;10.98;;;7.93;;
34876;SDS011;21086;44.780;17.194;2023-05-19T05:27:16;12.25;;;8.75;;
34876;SDS011;21086;44.780;17.194;2023-05-19T05:29:43;12.07;;;8.35;;
34876;SDS011;21086;44.780;17.194;2023-05-19T05:32:10;8.45;;;6.97;;
34876;SDS011;21086;44.780;17.194;2023-05-19T05:34:37;9.38;;;6.80;;
34876;SDS011;21086;44.780;17.194;2023-05-19T05:37:06;10.63;;;7.80;;
34876;SDS011;21086;44.780;17.194;2023-05-19T05:39:33;9.52;;;7.80;;
34876;SDS011;21086;44.780;17.194;2023-05-19T05:42:00;9.38;;;6.97;;
34876;SDS011;21086;44.780;17.194;2023-05-19T05:44:28;8.80;;;6.97;;
34876;SDS011;21086;44.780;17.194;2023-05-19T05:46:55;9.10;;;7.03;;
34876;SDS011;21086;44.780;17.194;2023-05-19T05:49:23;9.75;;;7.07;;
34876;SDS011;21086;44.780;17.194;2023-05-19T05:51:50;9.52;;;7.10;;
34876;SDS011;21086;44.780;17.194;2023-05-19T05:54:31;11.05;;;7.70;;
34876;SDS011;21086;44.780;17.194;2023-05-19T05:56:59;10.07;;;7.07;;
34876;SDS011;21086;44.780;17.194;2023-05-19T05:59:27;8.88;;;6.20;;
34876;SDS011;21086;44.780;17.194;2023-05-19T06:01:54;6.95;;;6.18;;
34876;SDS011;21086;44.780;17.194;2023-05-19T06:04:22;7.43;;;6.20;;
34876;SDS011;21086;44.780;17.194;2023-05-19T06:06:51;8.68;;;6.60;;
34876;SDS011;21086;44.780;17.194;2023-05-19T06:09:18;8.27;;;6.70;;
34876;SDS011;21086;44.780;17.194;2023-05-19T06:11:45;7.32;;;5.65;;
34876;SDS011;21086;44.780;17.194;2023-05-19T06:14:13;6.80;;;5.72;;
34876;SDS011;21086;44.780;17.194;2023-05-19T06:16:40;7.75;;;6.38;;
34876;SDS011;21086;44.780;17.194;2023-05-19T06:19:08;6.82;;;5.75;;
34876;SDS011;21086;44.780;17.194;2023-05-19T06:21:35;6.88;;;5.55;;
34876;SDS011;21086;44.780;17.194;2023-05-19T06:24:02;8.60;;;5.85;;
34876;SDS011;21086;44.780;17.194;2023-05-19T06:26:29;7.45;;;6.00;;
34876;SDS011;21086;44.780;17.194;2023-05-19T06:28:57;8.40;;;6.00;;
34876;SDS011;21086;44.780;17.194;2023-05-19T06:31:24;10.60;;;6.38;;
34876;SDS011;21086;44.780;17.194;2023-05-19T06:33:51;8.27;;;6.68;;
34876;SDS011;21086;44.780;17.194;2023-05-19T06:36:19;7.88;;;6.10;;
34876;SDS011;21086;44.780;17.194;2023-05-19T06:38:46;8.13;;;5.90;;
34876;SDS011;21086;44.780;17.194;2023-05-19T06:41:13;8.88;;;5.97;;
34876;SDS011;21086;44.780;17.194;2023-05-19T06:43:41;7.70;;;5.82;;
34876;SDS011;21086;44.780;17.194;2023-05-19T06:46:08;6.72;;;5.40;;
34876;SDS011;21086;44.780;17.194;2023-05-19T06:48:37;6.65;;;5.45;;
34876;SDS011;21086;44.780;17.194;2023-05-19T06:51:05;14.05;;;5.00;;
34876;SDS011;21086;44.780;17.194;2023-05-19T06:53:32;8.75;;;4.55;;
34876;SDS011;21086;44.780;17.194;2023-05-19T06:56:00;7.05;;;5.55;;
34876;SDS011;21086;44.780;17.194;2023-05-19T06:58:27;6.35;;;4.57;;
34876;SDS011;21086;44.780;17.194;2023-05-19T07:00:54;8.27;;;4.50;;
34876;SDS011;21086;44.780;17.194;2023-05-19T07:03:21;8.23;;;4.35;;
34876;SDS011;21086;44.780;17.194;2023-05-19T07:05:49;5.28;;;4.78;;
34876;SDS011;21086;44.780;17.194;2023-05-19T07:08:16;5.18;;;4.50;;
34876;SDS011;21086;44.780;17.194;2023-05-19T07:10:43;8.05;;;4.32;;
34876;SDS011;21086;44.780;17.194;2023-05-19T07:13:10;5.40;;;3.92;;
34876;SDS011;21086;44.780;17.194;2023-05-19T07:15:37;7.55;;;3.53;;
34876;SDS011;21086;44.780;17.194;2023-05-19T07:18:04;4.70;;;2.72;;
34876;SDS011;21086;44.780;17.194;2023-05-19T07:20:31;5.30;;;3.00;;
34876;SDS011;21086;44.780;17.194;2023-05-19T07:22:59;4.43;;;3.08;;
34876;SDS011;21086;44.780;17.194;2023-05-19T07:25:28;4.32;;;3.25;;
34876;SDS011;21086;44.780;17.194;2023-05-19T07:27:56;5.03;;;3.53;;
34876;SDS011;21086;44.780;17.194;2023-05-19T07:30:23;6.28;;;3.75;;
34876;SDS011;21086;44.780;17.194;2023-05-19T07:32:51;4.22;;;3.65;;
34876;SDS011;21086;44.780;17.194;2023-05-19T07:35:19;4.28;;;2.72;;
34876;SDS011;21086;44.780;17.194;2023-05-19T07:37:48;5.28;;;3.30;;
34876;SDS011;21086;44.780;17.194;2023-05-19T07:40:15;3.58;;;2.67;;
34876;SDS011;21086;44.780;17.194;2023-05-19T07:42:42;2.88;;;2.30;;
34876;SDS011;21086;44.780;17.194;2023-05-19T07:45:10;2.40;;;2.15;;
34876;SDS011;21086;44.780;17.194;2023-05-19T07:47:37;4.53;;;2.92;;
34876;SDS011;21086;44.780;17.194;2023-05-19T07:50:04;2.92;;;2.42;;
34876;SDS011;21086;44.780;17.194;2023-05-19T07:52:31;3.80;;;2.50;;
34876;SDS011;21086;44.780;17.194;2023-05-19T07:54:59;3.90;;;2.45;;
34876;SDS011;21086;44.780;17.194;2023-05-19T07:57:26;3.50;;;2.42;;
34876;SDS011;21086;44.780;17.194;2023-05-19T07:59:52;3.65;;;2.55;;
34876;SDS011;21086;44.780;17.194;2023-05-19T08:02:20;7.00;;;2.83;;
34876;SDS011;21086;44.780;17.194;2023-05-19T08:04:47;3.03;;;2.40;;
34876;SDS011;21086;44.780;17.194;2023-05-19T08:07:15;3.67;;;3.00;;
34876;SDS011;21086;44.780;17.194;2023-05-19T08:09:42;5.40;;;3.10;;
34876;SDS011;21086;44.780;17.194;2023-05-19T08:12:09;4.10;;;3.20;;
34876;SDS011;21086;44.780;17.194;2023-05-19T08:14:36;4.07;;;2.70;;
34876;SDS011;21086;44.780;17.194;2023-05-19T08:17:03;4.75;;;2.85;;
34876;SDS011;21086;44.780;17.194;2023-05-19T08:19:30;3.28;;;2.67;;
34876;SDS011;21086;44.780;17.194;2023-05-19T08:21:57;6.03;;;3.03;;
34876;SDS011;21086;44.780;17.194;2023-05-19T08:24:26;3.65;;;2.78;;
34876;SDS011;21086;44.780;17.194;2023-05-19T08:26:58;3.75;;;2.60;;
34876;SDS011;21086;44.780;17.194;2023-05-19T08:29:25;3.15;;;2.50;;
34876;SDS011;21086;44.780;17.194;2023-05-19T08:31:52;3.83;;;2.78;;
34876;SDS011;21086;44.780;17.194;2023-05-19T08:34:19;5.82;;;3.08;;
34876;SDS011;21086;44.780;17.194;2023-05-19T08:36:46;8.70;;;5.70;;
34876;SDS011;21086;44.780;17.194;2023-05-19T08:39:13;5.80;;;3.72;;
34876;SDS011;21086;44.780;17.194;2023-05-19T08:41:41;3.50;;;3.10;;
34876;SDS011;21086;44.780;17.194;2023-05-19T08:44:09;4.50;;;2.47;;
34876;SDS011;21086;44.780;17.194;2023-05-19T08:46:37;3.90;;;3.33;;
34876;SDS011;21086;44.780;17.194;2023-05-19T08:49:07;5.00;;;3.40;;
34876;SDS011;21086;44.780;17.194;2023-05-19T08:54:11;4.15;;;2.92;;
34876;SDS011;21086;44.780;17.194;2023-05-19T08:56:43;7.43;;;5.13;;
34876;SDS011;21086;44.780;17.194;2023-05-19T08:59:12;5.60;;;2.95;;
34876;SDS011;21086;44.780;17.194;2023-05-19T09:01:44;3.55;;;2.70;;
34876;SDS011;21086;44.780;17.194;2023-05-19T09:04:12;3.50;;;2.75;;
34876;SDS011;21086;44.780;17.194;2023-05-19T09:06:39;2.78;;;2.40;;
34876;SDS011;21086;44.780;17.194;2023-05-19T09:09:08;2.95;;;2.45;;
34876;SDS011;21086;44.780;17.194;2023-05-19T09:11:35;2.80;;;2.00;;
34876;SDS011;21086;44.780;17.194;2023-05-19T09:14:03;3.45;;;2.10;;
34876;SDS011;21086;44.780;17.194;2023-05-19T09:16:31;3.30;;;2.47;;
34876;SDS011;21086;44.780;17.194;2023-05-19T09:18:59;3.50;;;2.30;;
34876;SDS011;21086;44.780;17.194;2023-05-19T09:21:30;3.97;;;2.30;;
34876;SDS011;21086;44.780;17.194;2023-05-19T09:24:04;3.58;;;2.28;;
34876;SDS011;21086;44.780;17.194;2023-05-19T09:26:40;2.90;;;2.17;;
34876;SDS011;21086;44.780;17.194;2023-05-19T09:29:12;2.40;;;2.17;;
34876;SDS011;21086;44.780;17.194;2023-05-19T09:31:50;2.95;;;2.40;;
34876;SDS011;21086;44.780;17.194;2023-05-19T09:34:19;3.78;;;2.15;;
34876;SDS011;21086;44.780;17.194;2023-05-19T09:36:48;3.63;;;2.53;;
34876;SDS011;21086;44.780;17.194;2023-05-19T09:39:15;4.60;;;3.00;;
34876;SDS011;21086;44.780;17.194;2023-05-19T09:41:43;4.07;;;3.40;;
34876;SDS011;21086;44.780;17.194;2023-05-19T09:44:20;3.33;;;3.03;;
34876;SDS011;21086;44.780;17.194;2023-05-19T09:46:48;5.18;;;2.88;;
34876;SDS011;21086;44.780;17.194;2023-05-19T09:51:54;5.00;;;3.25;;
34876;SDS011;21086;44.780;17.194;2023-05-19T09:54:25;3.90;;;3.33;;
34876;SDS011;21086;44.780;17.194;2023-05-19T09:56:58;3.65;;;2.97;;
34876;SDS011;21086;44.780;17.194;2023-05-19T09:59:26;3.70;;;3.17;;
34876;SDS011;21086;44.780;17.194;2023-05-19T10:01:59;5.03;;;3.28;;
34876;SDS011;21086;44.780;17.194;2023-05-19T10:04:28;4.43;;;3.85;;
34876;SDS011;21086;44.780;17.194;2023-05-19T10:06:57;4.32;;;3.88;;
34876;SDS011;21086;44.780;17.194;2023-05-19T10:09:31;5.00;;;3.55;;
34876;SDS011;21086;44.780;17.194;2023-05-19T10:11:59;7.05;;;3.78;;
34876;SDS011;21086;44.780;17.194;2023-05-19T10:14:28;4.20;;;3.38;;
34876;SDS011;21086;44.780;17.194;2023-05-19T10:16:56;4.38;;;3.88;;
34876;SDS011;21086;44.780;17.194;2023-05-19T10:19:25;4.65;;;4.10;;
34876;SDS011;21086;44.780;17.194;2023-05-19T10:21:53;4.00;;;3.40;;
34876;SDS011;21086;44.780;17.194;2023-05-19T10:24:21;4.00;;;3.60;;
34876;SDS011;21086;44.780;17.194;2023-05-19T10:26:50;4.95;;;3.78;;
34876;SDS011;21086;44.780;17.194;2023-05-19T10:29:30;3.58;;;3.28;;
34876;SDS011;21086;44.780;17.194;2023-05-19T10:32:01;4.47;;;4.03;;
34876;SDS011;21086;44.780;17.194;2023-05-19T10:34:56;11.20;;;3.25;;
34876;SDS011;21086;44.780;17.194;2023-05-19T10:38:02;3.70;;;3.20;;
34876;SDS011;21086;44.780;17.194;2023-05-19T10:41:01;4.25;;;3.40;;
34876;SDS011;21086;44.780;17.194;2023-05-19T10:43:54;5.20;;;3.58;;
34876;SDS011;21086;44.780;17.194;2023-05-19T10:46:28;4.68;;;4.25;;
34876;SDS011;21086;44.780;17.194;2023-05-19T10:48:56;4.63;;;3.70;;
34876;SDS011;21086;44.780;17.194;2023-05-19T10:51:29;4.45;;;3.55;;
34876;SDS011;21086;44.780;17.194;2023-05-19T10:53:57;5.10;;;4.10;;
34876;SDS011;21086;44.780;17.194;2023-05-19T10:56:29;5.05;;;4.55;;
34876;SDS011;21086;44.780;17.194;2023-05-19T10:58:59;4.97;;;4.25;;
34876;SDS011;21086;44.780;17.194;2023-05-19T11:01:30;4.30;;;3.83;;
34876;SDS011;21086;44.780;17.194;2023-05-19T11:04:04;5.88;;;3.92;;
34876;SDS011;21086;44.780;17.194;2023-05-19T11:06:33;5.18;;;4.60;;
34876;SDS011;21086;44.780;17.194;2023-05-19T11:09:08;4.43;;;4.03;;
34876;SDS011;21086;44.780;17.194;2023-05-19T11:11:53;7.03;;;4.65;;
34876;SDS011;21086;44.780;17.194;2023-05-19T11:14:26;5.63;;;5.03;;
34876;SDS011;21086;44.780;17.194;2023-05-19T11:16:58;5.80;;;4.93;;
34876;SDS011;21086;44.780;17.194;2023-05-19T11:19:26;5.68;;;4.68;;
34876;SDS011;21086;44.780;17.194;2023-05-19T11:21:54;6.03;;;5.43;;
34876;SDS011;21086;44.780;17.194;2023-05-19T11:24:32;5.57;;;4.97;;
34876;SDS011;21086;44.780;17.194;2023-05-19T11:29:48;7.25;;;5.63;;
34876;SDS011;21086;44.780;17.194;2023-05-19T11:32:19;7.57;;;5.75;;
34876;SDS011;21086;44.780;17.194;2023-05-19T11:34:48;5.55;;;4.95;;
34876;SDS011;21086;44.780;17.194;2023-05-19T11:37:18;5.63;;;5.10;;
34876;SDS011;21086;44.780;17.194;2023-05-19T11:39:45;6.65;;;5.95;;
34876;SDS011;21086;44.780;17.194;2023-05-19T11:42:12;5.85;;;5.25;;
34876;SDS011;21086;44.780;17.194;2023-05-19T11:44:39;6.25;;;5.65;;
34876;SDS011;21086;44.780;17.194;2023-05-19T11:47:06;5.90;;;5.30;;
34876;SDS011;21086;44.780;17.194;2023-05-19T11:49:34;9.85;;;5.35;;
34876;SDS011;21086;44.780;17.194;2023-05-19T11:52:01;7.97;;;5.97;;
34876;SDS011;21086;44.780;17.194;2023-05-19T11:54:29;5.53;;;5.03;;
34876;SDS011;21086;44.780;17.194;2023-05-19T11:57:02;7.88;;;4.95;;
34876;SDS011;21086;44.780;17.194;2023-05-19T11:59:33;8.27;;;5.63;;
34876;SDS011;21086;44.780;17.194;2023-05-19T12:02:14;6.35;;;5.10;;
34876;SDS011;21086;44.780;17.194;2023-05-19T12:04:47;6.53;;;5.30;;
34876;SDS011;21086;44.780;17.194;2023-05-19T12:07:15;7.13;;;5.90;;
34876;SDS011;21086;44.780;17.194;2023-05-19T12:09:47;7.90;;;5.63;;
34876;SDS011;21086;44.780;17.194;2023-05-19T12:12:15;11.82;;;5.82;;
34876;SDS011;21086;44.780;17.194;2023-05-19T12:14:48;7.85;;;6.43;;
34876;SDS011;21086;44.780;17.194;2023-05-19T12:17:19;9.68;;;6.10;;
34876;SDS011;21086;44.780;17.194;2023-05-19T12:19:49;5.78;;;5.25;;
34876;SDS011;21086;44.780;17.194;2023-05-19T12:22:17;6.22;;;5.30;;
34876;SDS011;21086;44.780;17.194;2023-05-19T12:24:44;6.70;;;6.00;;
34876;SDS011;21086;44.780;17.194;2023-05-19T12:27:16;6.82;;;5.68;;
34876;SDS011;21086;44.780;17.194;2023-05-19T12:29:52;7.80;;;7.00;;
34876;SDS011;21086;44.780;17.194;2023-05-19T12:32:23;7.38;;;6.57;;
34876;SDS011;21086;44.780;17.194;2023-05-19T12:34:52;7.20;;;6.25;;
34876;SDS011;21086;44.780;17.194;2023-05-19T12:37:26;8.98;;;6.50;;
34876;SDS011;21086;44.780;17.194;2023-05-19T12:39:55;11.90;;;7.18;;
34876;SDS011;21086;44.780;17.194;2023-05-19T12:42:25;9.38;;;6.50;;
34876;SDS011;21086;44.780;17.194;2023-05-19T12:45:01;10.93;;;7.97;;
34876;SDS011;21086;44.780;17.194;2023-05-19T12:47:33;9.02;;;7.85;;
34876;SDS011;21086;44.780;17.194;2023-05-19T12:50:02;8.68;;;7.20;;
34876;SDS011;21086;44.780;17.194;2023-05-19T12:52:55;7.93;;;7.13;;
34876;SDS011;21086;44.780;17.194;2023-05-19T12:55:21;7.70;;;6.65;;
34876;SDS011;21086;44.780;17.194;2023-05-19T12:57:49;6.93;;;6.20;;
34876;SDS011;21086;44.780;17.194;2023-05-19T13:00:20;6.30;;;5.45;;
34876;SDS011;21086;44.780;17.194;2023-05-19T13:03:00;7.07;;;6.38;;
34876;SDS011;21086;44.780;17.194;2023-05-19T13:05:39;6.43;;;5.80;;
34876;SDS011;21086;44.780;17.194;2023-05-19T13:08:17;6.88;;;5.90;;
34876;SDS011;21086;44.780;17.194;2023-05-19T13:10:46;6.75;;;5.88;;
34876;SDS011;21086;44.780;17.194;2023-05-19T13:13:15;7.78;;;5.90;;
34876;SDS011;21086;44.780;17.194;2023-05-19T13:15:43;7.13;;;6.43;;
34876;SDS011;21086;44.780;17.194;2023-05-19T13:18:11;10.25;;;7.07;;
34876;SDS011;21086;44.780;17.194;2023-05-19T13:20:39;8.15;;;5.57;;
34876;SDS011;21086;44.780;17.194;2023-05-19T13:23:11;6.10;;;5.35;;
34876;SDS011;21086;44.780;17.194;2023-05-19T13:25:39;5.55;;;4.95;;
34876;SDS011;21086;44.780;17.194;2023-05-19T13:28:07;7.18;;;6.43;;
34876;SDS011;21086;44.780;17.194;2023-05-19T13:30:35;6.68;;;5.97;;
34876;SDS011;21086;44.780;17.194;2023-05-19T13:33:04;7.22;;;6.53;;
34876;SDS011;21086;44.780;17.194;2023-05-19T13:35:32;6.40;;;5.75;;
34876;SDS011;21086;44.780;17.194;2023-05-19T13:38:07;6.93;;;5.93;;
34876;SDS011;21086;44.780;17.194;2023-05-19T13:40:38;7.53;;;6.65;;
34876;SDS011;21086;44.780;17.194;2023-05-19T13:43:05;7.78;;;6.97;;
34876;SDS011;21086;44.780;17.194;2023-05-19T13:45:34;7.45;;;6.75;;
34876;SDS011;21086;44.780;17.194;2023-05-19T13:48:01;9.32;;;6.10;;
34876;SDS011;21086;44.780;17.194;2023-05-19T13:50:28;9.15;;;6.50;;
34876;SDS011;21086;44.780;17.194;2023-05-19T13:52:56;6.43;;;5.70;;
34876;SDS011;21086;44.780;17.194;2023-05-19T13:55:23;7.22;;;6.10;;
34876;SDS011;21086;44.780;17.194;2023-05-19T13:57:52;7.63;;;5.78;;
34876;SDS011;21086;44.780;17.194;2023-05-19T14:00:19;7.13;;;6.07;;
34876;SDS011;21086;44.780;17.194;2023-05-19T14:02:47;9.90;;;5.80;;
34876;SDS011;21086;44.780;17.194;2023-05-19T14:05:14;7.68;;;6.20;;
34876;SDS011;21086;44.780;17.194;2023-05-19T14:07:42;7.18;;;5.30;;
34876;SDS011;21086;44.780;17.194;2023-05-19T14:10:09;6.65;;;5.75;;
34876;SDS011;21086;44.780;17.194;2023-05-19T14:12:37;5.78;;;5.00;;
34876;SDS011;21086;44.780;17.194;2023-05-19T14:15:25;7.45;;;5.78;;
34876;SDS011;21086;44.780;17.194;2023-05-19T14:17:52;5.15;;;4.65;;
34876;SDS011;21086;44.780;17.194;2023-05-19T14:20:19;7.38;;;5.10;;
34876;SDS011;21086;44.780;17.194;2023-05-19T14:22:47;4.35;;;3.95;;
34876;SDS011;21086;44.780;17.194;2023-05-19T14:25:14;5.65;;;4.70;;
34876;SDS011;21086;44.780;17.194;2023-05-19T14:27:41;8.35;;;5.38;;
34876;SDS011;21086;44.780;17.194;2023-05-19T14:30:08;4.47;;;3.90;;
34876;SDS011;21086;44.780;17.194;2023-05-19T14:32:35;5.13;;;3.85;;
34876;SDS011;21086;44.780;17.194;2023-05-19T14:35:03;5.93;;;3.88;;
34876;SDS011;21086;44.780;17.194;2023-05-19T14:37:31;4.50;;;3.53;;
34876;SDS011;21086;44.780;17.194;2023-05-19T14:39:58;5.65;;;3.78;;
34876;SDS011;21086;44.780;17.194;2023-05-19T14:42:25;5.90;;;3.80;;
34876;SDS011;21086;44.780;17.194;2023-05-19T14:44:52;4.57;;;3.45;;
34876;SDS011;21086;44.780;17.194;2023-05-19T14:47:19;7.90;;;3.65;;
34876;SDS011;21086;44.780;17.194;2023-05-19T14:49:52;3.25;;;2.80;;
34876;SDS011;21086;44.780;17.194;2023-05-19T14:52:19;3.83;;;3.40;;
34876;SDS011;21086;44.780;17.194;2023-05-19T14:54:48;4.35;;;3.60;;
34876;SDS011;21086;44.780;17.194;2023-05-19T14:57:16;6.47;;;3.53;;
34876;SDS011;21086;44.780;17.194;2023-05-19T14:59:43;3.03;;;2.60;;
34876;SDS011;21086;44.780;17.194;2023-05-19T15:02:10;2.45;;;2.22;;
34876;SDS011;21086;44.780;17.194;2023-05-19T15:04:37;5.55;;;2.85;;
34876;SDS011;21086;44.780;17.194;2023-05-19T15:07:04;3.33;;;2.63;;
34876;SDS011;21086;44.780;17.194;2023-05-19T15:09:36;3.40;;;2.78;;
34876;SDS011;21086;44.780;17.194;2023-05-19T15:12:03;3.88;;;3.08;;
34876;SDS011;21086;44.780;17.194;2023-05-19T15:14:31;3.40;;;3.00;;